x

Smith Island, Wa (sisw1) Weather Station

3:00 - Sun 26th Apr 2015 All times are PDT. -7 hours from GMT.

  • Wind
    18mph, 22mph gusts
  • Aire Temp 57°f
  • Sea Pressure 1022.4mb
  • Smith Island, Wa
  • Smith Island, Wa

More Historic Weather Station data

Upgrade to MSW Pro to gain access to the past 30 days of data for over 8000 Wavebouys and Weather Stations around the globe.

Join Pro

Comparision Forecast

View Surf forecast
   
dom 04/26 3:00 18 22 mph 1022.4mb 57f
2:00 22 24 mph 1022.4mb 56f
1:00 20 22 mph 1022.4mb 54f
12:00 16 21 mph 1022.6mb 53f
11:00 14 16 mph 1022.1mb 51f
10:00 14 17 mph 1022.1mb 48f
9:00 15 16 mph 1021.5mb 47f
8:00 18 21 mph 1020.9mb 46f
7:00 17 18 mph 1020.7mb 45f
6:00 13 16 mph 1020.3mb 44f
5:00 11 14 mph 1020mb 45f
4:00 11 13 mph 1019.5mb 45f
3:00 9
mph
1019.3mb 46f
2:00 6
mph
1019.4mb 46f
1:00 5 6 mph 1019mb 47f
12:00 5 6 mph 1018.7mb 48f
sáb 04/25 11:00 3 5 mph 1018.6mb 48f
10:00 3 5 mph 1018.3mb 48f
9:00 6
mph
1018mb 48f
8:00 7
mph
1017.6mb 48f
7:00 6
mph
1017.4mb 50f
6:00 5 7 mph 1017.1mb 50f
5:00 3 5 mph 1016.8mb 51f
4:00 2 3 mph 1016.8mb 50f
3:00 5 6 mph 1016.5mb 50f
2:00 6 7 mph 1016.3mb 49f
1:00 5 7 mph 1016.2mb 49f
12:00 9 10 mph 1015.8mb 47f
11:00 3 6 mph 1015.6mb 46f
10:00  -  2 mph 1015.1mb 46f
9:00 3 5 mph 1014.7mb 44f
8:00 9 10 mph 1014.1mb 44f
7:00 11 15 mph 1013.3mb 45f
6:00 8 9 mph 1013mb 45f
5:00 13 14 mph 1012.6mb 45f
4:00 7
mph
1012.6mb 45f
3:00 2
mph
1012.3mb 46f
2:00 7 9 mph 1012.2mb 46f
1:00 9 14 mph 1011.9mb 47f
12:00 16 20 mph 1011.4mb 47f
vie 04/24 11:00 16 18 mph 1011.4mb 47f
10:00 14 17 mph 1011mb 48f
9:00 21 24 mph 1010.6mb 47f
8:00 10 14 mph 1010.5mb 48f
7:00 5 7 mph 1010mb 49f
6:00 8 9 mph 1009.6mb 50f
5:00 6 7 mph 1009.5mb 51f
4:00 10 13 mph 1009.5mb 51f
3:00 6 8 mph 1009mb 53f
2:00 13 14 mph 1008.4mb 56f
1:00 10 13 mph 1008.3mb 55f
12:00 15 16 mph 1008.2mb 54f
11:00 18 20 mph 1007.8mb 51f
10:00 17 18 mph 1007.7mb 47f
9:00 18 20 mph 1007.6mb 47f
8:00 17 18 mph 1007.5mb 47f
7:00 15 16 mph 1007.1mb 44f
6:00 14 15 mph 1006.8mb 44f
5:00 16 17 mph 1006.3mb 45f
4:00 23 24 mph 1006mb 44f
3:00 20 23 mph 1006.1mb 45f
2:00 22 24 mph 1006.1mb 45f
1:00 10 11 mph 1006.9mb 46f
12:00 10
mph
1007.5mb 46f
jue 04/23 11:00  -  1 mph 1007.9mb 47f
10:00 6 9 mph 1007.9mb 47f
9:00 5 6 mph 1007.6mb 47f
8:00 10 11 mph 1007.4mb 47f
7:00 13 15 mph 1007.7mb 48f
6:00 2 3 mph 1007.6mb 49f
5:00 5
mph
1008mb 48f
4:00 7 9 mph 1008.1mb 49f
3:00 28 30 mph 1007.9mb 49f
2:00 29 33 mph 1008mb 49f
1:00 36 40 mph 1008.1mb 49f
12:00 30 33 mph 1009mb 49f
11:00 26 29 mph 1009.3mb 49f
10:00 28 33 mph 1010.4mb 48f
9:00 23 26 mph 1011.4mb 47f
8:00 20 22 mph 1012.3mb 47f
7:00 15 17 mph 1013.2mb 46f
6:00 11 13 mph 1013.8mb 46f
5:00 13
mph
1014.5mb 47f
4:00 13 14 mph 1015.2mb 47f
3:00 13 17 mph 1015.4mb 47f
2:00 16 20 mph 1015.6mb 47f
1:00 18 23 mph 1016.4mb 47f
12:00 23 28 mph 1016.8mb 47f